Time;durP1;ratioP1;P1;durP2;ratioP2;P2;SDS_P1;SDS_P2;PMS_P1;PMS_P2;Temp;Humidity;BMP_temperature;BMP_pressure;BME280_temperature;BME280_humidity;BME280_pressure;Samples;Min_cycle;Max_cycle;Signal;HPM_P1;HPM_P2
2022/07/19 00:02:04;;;;;;;2.92;2.22;;;;;;;18.96;89.50;101639.28;20881069;28;20049;-76
2022/07/19 00:12:06;;;;;;;2.30;1.88;;;;;;;18.95;89.52;101621.38;20880817;28;20404;-76
2022/07/19 00:22:08;;;;;;;3.53;1.92;;;;;;;18.95;89.49;101615.97;20881166;28;20067;-77
2022/07/19 00:32:09;;;;;;;2.58;1.92;;;;;;;18.90;89.40;101609.25;20882539;28;20132;-76
2022/07/19 00:42:11;;;;;;;2.70;1.85;;;;;;;18.95;89.72;101631.31;20880481;28;20094;-75
2022/07/19 00:52:13;;;;;;;2.75;1.95;;;;;;;18.94;89.56;101625.03;20878343;28;20567;-75
2022/07/19 01:02:15;;;;;;;2.33;2.13;;;;;;;18.91;89.55;101611.81;20879158;28;20436;-76
2022/07/19 01:12:18;;;;;;;3.05;2.13;;;;;;;18.93;89.68;101612.53;20879116;28;20045;-75
2022/07/19 01:22:20;;;;;;;2.70;2.20;;;;;;;18.93;89.78;101615.25;20880304;28;20135;-75
2022/07/19 01:32:21;;;;;;;2.92;2.38;;;;;;;18.79;89.83;101594.81;20877640;28;20453;-75
2022/07/19 01:42:23;;;;;;;3.15;2.30;;;;;;;18.92;89.89;101613.53;20877844;28;20060;-76
2022/07/19 01:52:25;;;;;;;2.38;2.17;;;;;;;18.92;89.52;101621.63;20879124;28;20460;-75
2022/07/19 02:02:26;;;;;;;2.92;2.10;;;;;;;18.91;89.41;101610.97;20890164;28;20045;-76
2022/07/19 02:12:28;;;;;;;3.35;2.70;;;;;;;18.91;89.56;101611.81;20891537;28;20115;-76
2022/07/19 02:22:30;;;;;;;3.00;2.30;;;;;;;18.63;89.28;101573.63;20889090;28;20041;-76
2022/07/19 02:32:32;;;;;;;2.50;2.30;;;;;;;18.90;89.07;101609.25;20888518;28;20044;-76
2022/07/19 02:42:33;;;;;;;2.67;2.47;;;;;;;18.89;88.99;101610.25;20888412;28;20516;-77
2022/07/19 02:52:35;;;;;;;3.70;2.70;;;;;;;18.81;88.67;101597.38;20869954;28;20412;-75
2022/07/19 03:02:37;;;;;;;2.65;2.45;;;;;;;18.88;88.65;101612.06;20878167;28;20536;-76
2022/07/19 03:12:38;;;;;;;2.95;2.47;;;;;;;18.87;88.46;101596.88;20859045;28;20149;-75
2022/07/19 03:22:40;;;;;;;8.52;3.67;;;;;;;18.85;87.28;101601.53;20874366;28;20053;-75
2022/07/19 03:32:41;;;;;;;5.55;4.10;;;;;;;18.80;87.21;101593.84;20867160;28;20401;-75
2022/07/19 03:42:43;;;;;;;6.43;4.28;;;;;;;18.54;87.02;101550.06;20866396;28;20060;-75
2022/07/19 03:52:45;;;;;;;6.00;4.28;;;;;;;18.59;86.76;101558.69;20867825;28;20539;-76
2022/07/19 04:02:46;;;;;;;8.60;4.70;;;;;;;18.54;87.37;101560.88;20871992;28;20107;-75
2022/07/19 04:12:48;;;;;;;8.95;4.78;;;;;;;18.68;88.69;101589.41;20864745;28;20053;-75
2022/07/19 04:22:50;;;;;;;5.65;4.18;;;;;;;18.26;89.25;101542.38;20850823;28;20049;-76
2022/07/19 04:32:52;;;;;;;7.80;4.10;;;;;;;18.58;89.01;101573.16;20845753;28;20091;-78
2022/07/19 04:42:53;;;;;;;6.40;4.15;;;;;;;18.62;89.26;101580.00;20860948;28;20572;-75
2022/07/19 04:52:55;;;;;;;6.18;4.38;;;;;;;18.57;89.93;101584.91;20864194;28;20126;-75
2022/07/19 05:02:56;;;;;;;5.55;4.35;;;;;;;18.53;90.54;101589.69;20859015;28;20103;-75
2022/07/19 05:12:58;;;;;;;6.70;4.13;;;;;;;18.51;91.67;101598.88;20859582;28;20053;-75
2022/07/19 05:23:00;;;;;;;8.35;4.50;;;;;;;18.35;92.22;101583.09;20862724;28;20059;-75
2022/07/19 05:33:01;;;;;;;9.02;4.82;;;;;;;18.49;92.07;101592.75;20890005;28;20048;-75
2022/07/19 05:43:03;;;;;;;8.48;4.70;;;;;;;18.50;92.50;101586.38;20898118;28;20078;-75
2022/07/19 05:53:04;;;;;;;7.95;4.95;;;;;;;18.52;92.29;101592.50;20868976;28;20056;-75
2022/07/19 06:03:06;;;;;;;6.43;4.50;;;;;;;18.55;92.06;101584.16;20857516;28;20104;-75
2022/07/19 06:13:07;;;;;;;7.00;4.20;;;;;;;18.57;91.83;101597.53;20868799;28;20447;-76
2022/07/19 06:23:09;;;;;;;6.18;3.85;;;;;;;18.58;91.65;101592.03;20869389;28;20433;-76
2022/07/19 06:33:11;;;;;;;6.93;3.80;;;;;;;18.59;91.25;101585.66;20790801;28;20096;-76
2022/07/19 06:43:12;;;;;;;5.80;4.03;;;;;;;18.60;91.17;101590.06;20787098;28;20045;-76
2022/07/19 06:53:14;;;;;;;6.68;3.67;;;;;;;18.53;91.24;101570.81;20782640;28;20115;-75
2022/07/19 07:03:17;;;;;;;4.90;3.83;;;;;;;18.50;91.20;101562.97;20779081;28;20076;-75
2022/07/19 07:13:19;;;;;;;4.72;3.40;;;;;;;18.67;90.85;101563.44;20784540;28;20061;-75
2022/07/19 07:23:22;;;;;;;5.80;3.63;;;;;;;18.68;90.55;101571.41;20760634;28;20093;-75
2022/07/19 07:33:23;;;;;;;4.95;3.78;;;;;;;18.75;90.27;101568.19;20864516;28;20582;-76
2022/07/19 07:43:25;;;;;;;4.75;3.20;;;;;;;18.82;90.08;101572.09;20851302;28;20106;-75
2022/07/19 07:53:26;;;;;;;5.97;3.42;;;;;;;18.88;90.25;101552.72;20801435;28;20406;-74
2022/07/19 08:03:28;;;;;;;7.97;3.80;;;;;;;18.96;90.83;101550.22;20752880;28;20607;-76
2022/07/19 08:13:30;;;;;;;6.22;3.30;;;;;;;19.02;91.27;101540.81;20815498;28;20041;-75
2022/07/19 08:23:31;;;;;;;4.95;3.42;;;;;;;19.05;91.52;101527.06;20818972;28;20056;-75
2022/07/19 08:33:33;;;;;;;4.68;3.03;;;;;;;19.08;91.63;101531.34;20833079;28;20060;-74
2022/07/19 08:43:35;;;;;;;4.13;2.80;;;;;;;19.08;91.80;101532.19;20847965;28;20061;-76
2022/07/19 08:53:40;;;;;;;5.30;3.03;;;;;;;19.09;91.59;101522.28;20761532;28;20053;-75
2022/07/19 09:04:00;;;;;;;;;;;;;;;19.10;91.33;101529.38;20820840;28;20180;-74
2022/07/19 09:14:07;;;;;;;4.05;2.85;;;;;;;19.10;91.53;101526.69;20848970;28;19929;-75
2022/07/19 09:24:10;;;;;;;4.35;2.85;;;;;;;19.11;91.54;101526.53;20865683;28;20052;-75
2022/07/19 09:34:12;;;;;;;4.53;2.60;;;;;;;19.14;91.80;101522.75;20860229;28;20493;-74
2022/07/19 09:44:21;;;;;;;5.13;2.58;;;;;;;19.12;91.93;101505.81;20862264;28;20052;-74
2022/07/19 09:54:25;;;;;;;4.25;2.40;;;;;;;19.16;91.99;101506.41;20781111;28;20061;-75
2022/07/19 10:04:27;;;;;;;4.33;2.20;;;;;;;19.14;91.70;101498.44;20805896;28;20057;-75
2022/07/19 10:14:29;;;;;;;7.45;2.13;;;;;;;19.18;92.08;101505.28;20774618;28;20072;-75
2022/07/19 10:24:43;;;;;;;4.93;2.42;;;;;;;19.17;91.93;101498.19;20809433;28;20041;-74
2022/07/19 10:34:46;;;;;;;5.90;2.43;;;;;;;19.16;91.65;101482.97;20859812;28;20517;-74
2022/07/19 10:44:59;;;;;;;4.75;2.55;;;;;;;19.16;91.32;101474.88;20831414;28;20138;-75
2022/07/19 10:55:20;;;;;;;4.72;2.33;;;;;;;19.17;91.26;101468.50;20796716;28;20149;-74
2022/07/19 11:05:26;;;;;;;3.47;2.20;;;;;;;19.09;90.83;101452.94;20843404;28;20139;-76
2022/07/19 11:15:28;;;;;;;3.13;2.25;;;;;;;19.13;90.53;101459.78;20824923;28;20056;-75
2022/07/19 11:25:40;;;;;;;2.70;1.90;;;;;;;19.10;90.22;101438.47;20810227;28;20056;-76
2022/07/19 11:35:53;;;;;;;4.23;1.80;;;;;;;19.08;90.15;101426.09;20826732;28;20052;-76
2022/07/19 11:45:55;;;;;;;2.80;2.10;;;;;;;19.06;89.86;101406.50;20854745;28;20045;-75
2022/07/19 11:55:57;;;;;;;4.53;2.28;;;;;;;19.06;89.63;101411.91;20831094;28;21594;-75
2022/07/19 12:06:02;;;;;;;3.08;1.73;;;;;;;19.05;89.47;101404.78;20818831;28;20095;-76
2022/07/19 12:16:07;;;;;;;;;;;;;;;19.05;89.29;101396.69;20850639;28;20575;-76
2022/07/19 12:26:09;;;;;;;2.90;1.50;;;;;;;19.04;88.99;101384.19;20860865;28;19970;-75
2022/07/19 12:36:37;;;;;;;2.20;1.52;;;;;;;19.04;88.88;101386.88;20857010;28;20136;-75
2022/07/19 12:46:38;;;;;;;1.92;1.58;;;;;;;19.03;88.63;101366.28;20853681;28;20056;-75
2022/07/19 12:56:40;;;;;;;2.55;1.70;;;;;;;19.03;88.48;101360.88;20850026;28;20569;-76
2022/07/19 13:06:42;;;;;;;2.40;1.90;;;;;;;19.03;88.43;101360.88;20862603;28;20053;-75
2022/07/19 13:16:43;;;;;;;4.88;1.90;;;;;;;19.06;88.98;101360.63;20830262;28;20045;-75
2022/07/19 13:26:45;;;;;;;4.25;2.20;;;;;;;19.14;89.22;101344.63;20872168;28;20521;-75
2022/07/19 13:36:47;;;;;;;3.70;1.80;;;;;;;19.23;88.37;101330.31;20841636;28;20056;-74
2022/07/19 13:46:48;;;;;;;3.65;1.60;;;;;;;19.34;87.48;101312.31;20848986;28;20076;-75
2022/07/19 13:56:50;;;;;;;3.30;1.42;;;;;;;19.38;86.93;101303.81;20874412;28;20102;-75
2022/07/19 14:06:51;;;;;;;2.83;1.58;;;;;;;19.42;86.05;101296.25;20845331;28;20136;-74
2022/07/19 14:16:53;;;;;;;1.85;1.45;;;;;;;19.48;85.46;101284.94;20858973;28;20049;-75
2022/07/19 14:26:55;;;;;;;4.45;1.42;;;;;;;19.47;85.08;101280.53;20863010;28;20076;-77
2022/07/19 14:36:57;;;;;;;2.13;1.50;;;;;;;19.45;84.37;101265.44;20864101;28;20060;-74
2022/07/19 14:46:59;;;;;;;3.40;1.33;;;;;;;19.38;83.83;101257.03;20857855;28;20053;-75
2022/07/19 14:57:01;;;;;;;3.08;1.65;;;;;;;19.45;83.86;101255.53;20854862;28;20056;-75
2022/07/19 15:07:03;;;;;;;2.45;1.52;;;;;;;19.31;83.65;101218.09;20847586;28;20048;-76
2022/07/19 15:17:05;;;;;;;2.15;1.55;;;;;;;19.48;83.79;101220.13;20772601;28;20052;-76
2022/07/19 15:27:07;;;;;;;2.78;1.20;;;;;;;19.49;84.22;101216.44;20819266;28;20056;-77
2022/07/19 15:37:08;;;;;;;3.75;2.10;;;;;;;19.48;84.33;101211.16;20770756;28;20669;-77
2022/07/19 15:47:10;;;;;;;5.85;1.90;;;;;;;19.46;84.22;101199.66;20811112;28;20076;-78
2022/07/19 15:57:12;;;;;;;7.78;2.60;;;;;;;19.45;83.91;101181.75;20846904;28;20049;-78
2022/07/19 16:07:13;;;;;;;8.88;3.55;;;;;;;19.42;83.35;101170.25;20822692;28;20172;-78
2022/07/19 16:17:15;;;;;;;9.82;4.45;;;;;;;19.40;82.51;101163.25;20745300;28;20073;-78
2022/07/19 16:27:19;;;;;;;9.32;4.60;;;;;;;19.34;82.23;101158.44;20827054;28;20160;-78
2022/07/19 16:37:23;;;;;;;14.70;6.28;;;;;;;19.39;82.18;101140.81;20794872;28;20532;-78
2022/07/19 16:47:25;;;;;;;22.52;9.70;;;;;;;19.34;82.14;101131.44;20826709;28;20064;-77
2022/07/19 16:57:27;;;;;;;19.58;10.02;;;;;;;19.35;82.11;101114.22;20835558;28;20413;-77
2022/07/19 17:07:29;;;;;;;24.05;12.30;;;;;;;19.39;82.20;101121.06;20840242;28;20048;-78
2022/07/19 17:17:31;;;;;;;19.85;11.57;;;;;;;19.40;82.27;101120.94;20774606;28;20055;-76
2022/07/19 17:27:33;;;;;;;25.80;12.32;;;;;;;19.40;82.29;101120.94;20762694;28;20069;-76
2022/07/19 17:37:34;;;;;;;25.63;13.23;;;;;;;19.41;82.03;101100.16;20755100;28;20055;-76
2022/07/19 17:47:36;;;;;;;25.58;12.63;;;;;;;19.19;82.25;101069.78;20783121;28;20062;-76
2022/07/19 17:57:38;;;;;;;25.20;12.90;;;;;;;19.23;82.47;101075.75;20757520;28;20041;-77
2022/07/19 18:07:40;;;;;;;20.60;11.52;;;;;;;19.38;82.40;101097.75;20802314;28;20064;-78
2022/07/19 18:17:41;;;;;;;23.98;14.32;;;;;;;19.36;82.79;101107.84;20821965;28;20041;-76
2022/07/19 18:27:43;;;;;;;23.75;13.15;;;;;;;18.87;83.40;101016.03;20787065;28;20053;-76
2022/07/19 18:37:45;;;;;;;23.52;13.27;;;;;;;19.36;83.92;101097.03;20834607;28;20049;-76
2022/07/19 18:47:47;;;;;;;20.17;12.32;;;;;;;19.35;85.05;101085.41;20868394;28;20087;-75
2022/07/19 18:57:49;;;;;;;21.05;12.82;;;;;;;19.25;85.50;101080.00;20961487;28;20048;-75
2022/07/19 19:07:50;;;;;;;21.33;11.57;;;;;;;19.34;85.72;101082.84;20969245;28;20053;-75
2022/07/19 19:17:52;;;;;;;17.73;10.25;;;;;;;19.28;86.17;101078.88;20970418;28;20044;-75
2022/07/19 19:27:53;;;;;;;17.08;9.32;;;;;;;19.33;86.52;101087.41;20942975;28;20053;-75
2022/07/19 19:37:55;;;;;;;20.48;10.40;;;;;;;19.18;86.72;101078.84;20966705;28;20053;-75
2022/07/19 19:47:57;;;;;;;13.30;8.25;;;;;;;19.32;86.98;101092.94;20967055;28;20508;-75
2022/07/19 19:58:00;;;;;;;14.15;9.10;;;;;;;19.32;87.01;101093.78;20963210;28;20072;-76
2022/07/19 20:08:02;;;;;;;12.27;8.15;;;;;;;19.12;87.19;101060.53;20965268;28;20075;-75
2022/07/19 20:18:05;;;;;;;12.55;7.70;;;;;;;19.31;87.32;101099.31;20965113;28;20040;-76
2022/07/19 20:28:06;;;;;;;11.70;7.63;;;;;;;19.31;87.51;101102.88;20950665;28;20044;-76
2022/07/19 20:38:08;;;;;;;12.98;7.15;;;;;;;19.24;87.37;101089.09;20964473;28;20548;-75
2022/07/19 20:48:10;;;;;;;11.25;6.70;;;;;;;19.30;87.49;101097.63;20963482;28;20075;-76
2022/07/19 20:58:11;;;;;;;10.05;6.32;;;;;;;19.30;87.52;101097.63;20970007;28;20060;-75
2022/07/19 21:08:13;;;;;;;10.52;6.65;;;;;;;19.28;87.13;101095.91;20979807;28;20075;-75
2022/07/19 21:18:15;;;;;;;12.35;6.35;;;;;;;19.28;87.29;101104.00;20980130;28;20135;-75
2022/07/19 21:28:17;;;;;;;8.77;6.40;;;;;;;19.27;86.99;101101.47;20963289;28;20056;-75
2022/07/19 21:38:19;;;;;;;9.35;6.18;;;;;;;19.26;86.65;101097.06;20977386;28;20103;-75
2022/07/19 21:48:21;;;;;;;8.95;5.90;;;;;;;19.25;86.60;101090.78;20959150;28;20102;-75
2022/07/19 21:58:23;;;;;;;8.48;5.47;;;;;;;19.26;86.42;101091.66;20976154;28;20457;-75
2022/07/19 22:08:26;;;;;;;8.00;4.88;;;;;;;19.25;86.25;101090.78;20974155;28;20067;-75
2022/07/19 22:18:27;;;;;;;9.32;5.40;;;;;;;19.17;85.93;101087.09;20975163;28;20106;-75
2022/07/19 22:28:29;;;;;;;6.95;4.75;;;;;;;19.25;85.34;101106.16;20962988;28;20086;-75
2022/07/19 22:38:31;;;;;;;6.65;4.10;;;;;;;19.24;85.33;101105.28;20973272;28;20441;-75
2022/07/19 22:48:32;;;;;;;6.05;4.18;;;;;;;18.99;84.53;101061.63;20972620;28;20455;-75
2022/07/19 22:58:34;;;;;;;6.93;4.55;;;;;;;19.24;84.51;101105.28;20972014;28;20079;-76
2022/07/19 23:08:35;;;;;;;6.53;3.92;;;;;;;19.22;84.06;101099.16;20971877;28;20094;-76
2022/07/19 23:18:37;;;;;;;6.03;3.90;;;;;;;19.22;83.67;101096.47;20965233;28;20048;-75
2022/07/19 23:28:39;;;;;;;5.18;3.53;;;;;;;19.21;83.36;101100.16;20957746;28;20048;-75
2022/07/19 23:38:40;;;;;;;5.25;3.40;;;;;;;19.12;83.34;101074.03;20968374;28;20056;-75
2022/07/19 23:48:42;;;;;;;5.47;3.50;;;;;;;19.16;82.61;101075.44;20966339;28;20075;-75
2022/07/19 23:58:43;;;;;;;4.78;3.22;;;;;;;19.20;82.70;101076.88;20966805;28;20451;-75
